Time;durP1;ratioP1;P1;durP2;ratioP2;P2;SDS_P1;SDS_P2;PMS_P1;PMS_P2;Temp;Humidity;BMP_temperature;BMP_pressure;BME280_temperature;BME280_humidity;BME280_pressure;Samples;Min_cycle;Max_cycle;Signal;HPM_P1;HPM_P2
2022/03/30 00:00:12;;;;;;;13.50;7.80;;;;;;;5.69;84.41;100878.13;5032439;28;20104;-76
2022/03/30 00:02:38;;;;;;;19.23;8.82;;;;;;;5.64;84.53;100865.41;5014123;28;20049;-76
2022/03/30 00:05:04;;;;;;;19.98;8.63;;;;;;;5.69;84.97;100865.88;5031375;28;20040;-76
2022/03/30 00:07:31;;;;;;;18.52;9.40;;;;;;;5.71;86.23;100868.38;5020131;28;20397;-76
2022/03/30 00:10:01;;;;;;;15.25;7.78;;;;;;;5.71;85.57;100868.38;5020831;28;20033;-76
2022/03/30 00:12:27;;;;;;;17.55;8.68;;;;;;;5.72;85.57;100865.63;5013646;28;20500;-76
2022/03/30 00:14:53;;;;;;;19.45;7.38;;;;;;;5.69;85.83;100862.44;5014439;28;20056;-77
2022/03/30 00:17:19;;;;;;;15.63;7.20;;;;;;;5.53;86.63;100852.28;5002229;28;20045;-76
2022/03/30 00:19:44;;;;;;;13.93;8.10;;;;;;;5.55;86.69;100851.22;5021438;28;20113;-76
2022/03/30 00:22:09;;;;;;;18.27;6.97;;;;;;;5.49;86.94;100848.25;5024878;28;20033;-76
2022/03/30 00:24:38;;;;;;;15.45;7.95;;;;;;;5.63;87.08;100861.09;5026033;28;20033;-77
2022/03/30 00:27:06;;;;;;;19.15;7.90;;;;;;;5.50;86.86;100849.91;5025997;28;20034;-76
2022/03/30 00:29:32;;;;;;;16.85;7.80;;;;;;;5.59;86.64;100851.81;5012067;28;20129;-76
2022/03/30 00:31:57;;;;;;;20.25;7.20;;;;;;;5.45;87.22;100837.16;5023937;28;20481;-76
2022/03/30 00:34:23;;;;;;;17.10;7.95;;;;;;;5.51;87.62;100841.13;5027977;28;20036;-76
2022/03/30 00:36:49;;;;;;;16.60;8.25;;;;;;;5.54;87.78;100840.88;5024928;28;20052;-76
2022/03/30 00:39:16;;;;;;;16.27;7.68;;;;;;;5.68;87.00;100853.75;5018200;28;20069;-76
2022/03/30 00:41:42;;;;;;;19.27;8.18;;;;;;;5.70;87.33;100862.28;5016567;28;20044;-76
2022/03/30 00:44:14;;;;;;;16.77;8.10;;;;;;;5.70;87.23;100849.19;5028683;28;20480;-76
2022/03/30 00:46:44;;;;;;;16.48;6.88;;;;;;;5.70;87.79;100851.00;5022690;28;20029;-76
2022/03/30 00:49:10;;;;;;;16.17;7.85;;;;;;;5.70;87.73;100846.56;5025909;28;20033;-76
2022/03/30 00:51:35;;;;;;;14.68;7.60;;;;;;;5.58;88.40;100847.53;5027302;28;20030;-76
2022/03/30 00:54:01;;;;;;;18.23;8.25;;;;;;;5.55;89.36;100851.22;5019267;28;20029;-76
2022/03/30 00:56:31;;;;;;;21.02;8.95;;;;;;;5.46;89.25;100830.13;5019475;28;20034;-77
2022/03/30 00:58:56;;;;;;;12.77;7.38;;;;;;;5.59;89.48;100846.56;5016129;28;20481;-76
2022/03/30 01:01:23;;;;;;;20.50;8.73;;;;;;;5.58;89.66;100839.69;5026402;28;20029;-76
2022/03/30 01:03:49;;;;;;;16.27;7.40;;;;;;;5.42;90.39;100834.78;5019202;28;20112;-76
2022/03/30 01:06:14;;;;;;;15.50;7.55;;;;;;;5.42;91.43;100823.47;5027597;28;20165;-76
2022/03/30 01:08:40;;;;;;;16.77;7.35;;;;;;;5.47;91.68;100837.88;5017554;28;20426;-76
2022/03/30 01:11:06;;;;;;;24.48;8.60;;;;;;;5.45;91.25;100836.34;5026359;28;20122;-76
2022/03/30 01:13:33;;;;;;;15.80;8.73;;;;;;;5.42;91.29;100834.78;5013484;28;20034;-76
2022/03/30 01:15:59;;;;;;;19.83;8.05;;;;;;;5.27;91.94;100797.53;5020915;28;20049;-76
2022/03/30 01:18:25;;;;;;;16.52;7.97;;;;;;;5.27;91.90;100787.06;5024018;28;20045;-77
2022/03/30 01:20:51;;;;;;;17.90;8.27;;;;;;;5.41;91.38;100808.72;5014323;28;20034;-77
2022/03/30 01:23:17;;;;;;;20.27;7.93;;;;;;;5.47;91.65;100819.56;5028268;28;20057;-76
2022/03/30 01:25:42;;;;;;;18.63;7.05;;;;;;;5.45;91.36;100815.41;5021806;28;20033;-76
2022/03/30 01:28:08;;;;;;;16.23;7.65;;;;;;;5.50;91.59;100808.03;5018319;28;20124;-77
2022/03/30 01:33:18;;;;;;;16.20;8.02;;;;;;;5.60;90.13;100814.22;5022824;28;20044;-77
2022/03/30 01:35:43;;;;;;;16.98;8.15;;;;;;;5.62;91.17;100811.47;5021166;28;20022;-78
2022/03/30 01:38:09;;;;;;;12.88;6.50;;;;;;;5.60;91.04;100800.31;5019121;28;20281;-78
2022/03/30 01:40:35;;;;;;;13.75;6.40;;;;;;;5.55;91.26;100795.41;5023746;28;20033;-77
2022/03/30 01:43:00;;;;;;;16.80;7.20;;;;;;;5.61;91.15;100807.19;5025192;28;20028;-77
2022/03/30 01:45:27;;;;;;;15.80;7.45;;;;;;;5.59;91.36;100803.84;5024144;28;20029;-77
2022/03/30 01:47:59;;;;;;;17.13;7.47;;;;;;;5.61;91.78;100810.63;5019360;28;20057;-78
2022/03/30 01:50:25;;;;;;;13.98;6.10;;;;;;;5.63;91.23;100803.50;5024956;28;20029;-78
2022/03/30 01:52:51;;;;;;;10.73;7.43;;;;;;;5.68;91.48;100804.00;5026425;28;20031;-78
2022/03/30 01:55:17;;;;;;;12.07;7.40;;;;;;;5.72;91.99;100807.19;5022843;28;20478;-77
2022/03/30 01:57:44;;;;;;;16.20;7.65;;;;;;;5.54;91.81;100772.81;5018355;28;20053;-77
2022/03/30 02:00:11;;;;;;;10.55;6.18;;;;;;;5.69;92.96;100791.72;5020818;28;20537;-78
2022/03/30 02:02:38;;;;;;;14.13;5.72;;;;;;;5.66;93.15;100784.09;5019970;28;20038;-79
2022/03/30 02:05:05;;;;;;;5.20;2.80;;;;;;;5.74;94.29;100789.56;5020024;28;20030;-77
2022/03/30 02:07:30;;;;;;;3.20;1.52;;;;;;;5.72;95.21;100789.69;5019308;28;20068;-77
2022/03/30 02:09:56;;;;;;;7.50;1.65;;;;;;;5.65;95.87;100780.66;5011105;28;20470;-77
2022/03/30 02:12:21;;;;;;;5.18;1.45;;;;;;;5.60;96.90;100769.72;5014336;28;20037;-77
2022/03/30 02:14:49;;;;;;;3.55;1.67;;;;;;;5.64;96.78;100778.13;5014458;28;20025;-77
2022/03/30 02:17:15;;;;;;;3.65;1.50;;;;;;;5.68;97.45;100790.91;5011444;28;20098;-77
2022/03/30 02:19:40;;;;;;;3.40;1.67;;;;;;;5.66;97.42;100787.56;5018373;28;20465;-77
2022/03/30 02:22:06;;;;;;;3.42;1.88;;;;;;;5.56;98.15;100778.75;5016681;28;20121;-77
2022/03/30 02:24:31;;;;;;;2.85;1.60;;;;;;;5.49;98.76;100774.94;5023622;28;20070;-77
2022/03/30 02:26:56;;;;;;;8.18;1.55;;;;;;;5.55;98.12;100784.94;5017795;28;20068;-78
2022/03/30 02:29:22;;;;;;;3.08;1.40;;;;;;;5.52;98.75;100780.75;5003598;28;20056;-77
2022/03/30 02:31:47;;;;;;;2.17;0.80;;;;;;;5.47;98.75;100779.47;5019551;28;20501;-77
2022/03/30 02:34:13;;;;;;;1.17;0.60;;;;;;;5.41;98.08;100782.56;5021973;28;20026;-77
2022/03/30 02:36:39;;;;;;;2.75;0.63;;;;;;;5.33;98.60;100773.53;5021952;28;20051;-77
2022/03/30 02:39:05;;;;;;;2.35;0.82;;;;;;;5.14;97.87;100749.72;5014636;28;20560;-77
2022/03/30 02:41:30;;;;;;;0.60;0.40;;;;;;;5.19;97.60;100759.81;5024310;28;20041;-76
2022/03/30 02:43:56;;;;;;;8.40;0.90;;;;;;;5.28;98.03;100773.03;5000627;28;20449;-76
2022/03/30 02:46:21;;;;;;;4.35;0.82;;;;;;;5.31;97.79;100774.56;5018631;28;20362;-76
2022/03/30 02:48:47;;;;;;;1.05;0.60;;;;;;;5.23;97.29;100756.84;4999309;28;20080;-76
2022/03/30 02:51:13;;;;;;;2.63;0.50;;;;;;;5.33;96.80;100773.53;5018539;28;20056;-78
2022/03/30 02:53:38;;;;;;;3.13;0.80;;;;;;;5.32;96.65;100778.88;5024085;28;20485;-77
2022/03/30 02:56:04;;;;;;;3.22;0.43;;;;;;;5.27;96.45;100765.28;5023097;28;20095;-76
2022/03/30 02:58:30;;;;;;;1.58;0.38;;;;;;;5.23;96.31;100769.09;4998768;28;20029;-76
2022/03/30 03:00:56;;;;;;;1.90;0.50;;;;;;;5.17;96.83;100752.09;5023952;28;20053;-76
2022/03/30 03:03:23;;;;;;;0.90;0.43;;;;;;;5.21;96.16;100766.59;5020600;28;20029;-76
2022/03/30 03:05:48;;;;;;;1.30;0.50;;;;;;;5.20;96.74;100772.75;5000195;28;20037;-76
2022/03/30 03:08:14;;;;;;;0.90;0.50;;;;;;;5.11;96.46;100755.16;5016318;28;20532;-77
2022/03/30 03:10:41;;;;;;;4.30;0.70;;;;;;;5.05;96.68;100750.38;5023543;28;20163;-77
2022/03/30 03:13:07;;;;;;;2.17;0.70;;;;;;;5.17;95.95;100765.16;5016212;28;20492;-76
2022/03/30 03:15:35;;;;;;;0.73;0.30;;;;;;;5.18;95.66;100777.28;5022355;28;20521;-76
2022/03/30 03:18:01;;;;;;;0.22;0.20;;;;;;;5.13;96.06;100763.72;5014997;28;20112;-76
2022/03/30 03:20:28;;;;;;;0.13;0.13;;;;;;;5.12;95.92;100768.13;5017762;28;20231;-77
2022/03/30 03:22:54;;;;;;;0.20;0.20;;;;;;;5.05;95.18;100760.84;5019850;28;20040;-77
2022/03/30 03:25:20;;;;;;;0.47;0.20;;;;;;;5.05;95.06;100761.72;5018885;28;20037;-77
2022/03/30 03:27:45;;;;;;;1.30;0.20;;;;;;;5.07;95.79;100765.00;5014065;28;20410;-77
2022/03/30 03:30:11;;;;;;;0.45;0.20;;;;;;;5.06;95.42;100757.31;5019045;28;20359;-77
2022/03/30 03:32:37;;;;;;;0.43;0.20;;;;;;;5.05;95.76;100753.88;5017912;28;20051;-77
2022/03/30 03:35:03;;;;;;;0.82;0.30;;;;;;;5.12;96.36;100762.06;5019352;28;20025;-77
2022/03/30 03:37:28;;;;;;;0.20;0.20;;;;;;;5.10;95.97;100761.34;5023793;28;20025;-77
2022/03/30 03:39:54;;;;;;;2.28;0.30;;;;;;;4.95;95.34;100740.63;5019630;28;20580;-77
2022/03/30 03:42:19;;;;;;;1.42;0.55;;;;;;;5.03;96.19;100752.28;5021412;28;20034;-77
2022/03/30 03:44:45;;;;;;;0.40;0.30;;;;;;;4.90;95.77;100731.47;5021562;28;20030;-77
2022/03/30 03:47:10;;;;;;;1.17;0.52;;;;;;;5.01;95.05;100757.66;5016794;28;20026;-77
2022/03/30 03:49:37;;;;;;;1.27;0.30;;;;;;;4.91;95.71;100744.44;5021294;28;20456;-77
2022/03/30 03:52:04;;;;;;;0.40;0.20;;;;;;;4.98;95.98;100754.44;5022550;28;20069;-77
2022/03/30 03:54:29;;;;;;;0.35;0.20;;;;;;;4.94;95.35;100759.06;5021944;28;20597;-77
2022/03/30 03:56:56;;;;;;;2.45;0.30;;;;;;;4.86;95.67;100759.63;5015972;28;20049;-76
2022/03/30 03:59:21;;;;;;;2.10;0.40;;;;;;;4.72;95.14;100733.69;5020367;28;20037;-77
2022/03/30 04:01:46;;;;;;;2.88;0.40;;;;;;;4.86;95.32;100757.03;5019685;28;20033;-77
2022/03/30 04:04:12;;;;;;;0.47;0.30;;;;;;;4.78;94.90;100759.38;5025701;28;20099;-77
2022/03/30 04:06:37;;;;;;;0.20;0.20;;;;;;;4.76;94.82;100752.59;5018266;28;20097;-77
2022/03/30 04:09:03;;;;;;;0.60;0.40;;;;;;;4.77;94.84;100751.63;5020421;28;20061;-78
2022/03/30 04:11:28;;;;;;;0.90;0.43;;;;;;;4.64;94.48;100733.41;5023642;28;20033;-78
2022/03/30 04:13:54;;;;;;;0.95;0.50;;;;;;;4.73;95.04;100749.25;5020761;28;20029;-76
2022/03/30 04:16:20;;;;;;;1.50;0.57;;;;;;;4.68;94.18;100737.47;5018464;28;20089;-77
2022/03/30 04:18:45;;;;;;;1.65;0.60;;;;;;;4.70;93.94;100746.03;5019775;28;20507;-76
2022/03/30 04:21:10;;;;;;;0.80;0.40;;;;;;;4.66;93.52;100731.53;5019700;28;20158;-76
2022/03/30 04:23:36;;;;;;;1.00;0.35;;;;;;;4.59;93.63;100727.72;5022651;28;20049;-76
2022/03/30 04:26:02;;;;;;;0.70;0.40;;;;;;;4.69;93.34;100736.53;5019601;28;20470;-75
2022/03/30 04:28:28;;;;;;;1.33;0.60;;;;;;;4.68;94.15;100742.69;5020631;28;20105;-77
2022/03/30 04:30:53;;;;;;;1.23;0.52;;;;;;;4.71;93.73;100745.94;5017410;28;20113;-77
2022/03/30 04:33:19;;;;;;;0.90;0.43;;;;;;;4.71;94.62;100737.25;5020572;28;20048;-76
2022/03/30 04:35:44;;;;;;;5.07;0.40;;;;;;;4.69;93.97;100745.22;5018225;28;20410;-76
2022/03/30 04:38:09;;;;;;;1.70;0.50;;;;;;;4.72;94.18;100739.75;5020300;28;20025;-77
2022/03/30 04:40:35;;;;;;;1.10;0.60;;;;;;;4.75;94.37;100738.69;5019906;28;20440;-76
2022/03/30 04:43:01;;;;;;;1.38;0.60;;;;;;;4.69;94.35;100715.63;5016550;28;20025;-76
2022/03/30 04:45:27;;;;;;;0.90;0.65;;;;;;;4.75;94.27;100723.00;5000949;28;20490;-77
2022/03/30 04:47:55;;;;;;;5.28;0.80;;;;;;;4.68;94.76;100721.78;5017241;28;20037;-76
2022/03/30 04:50:21;;;;;;;1.08;0.68;;;;;;;4.79;94.67;100737.53;5021701;28;20048;-78
2022/03/30 04:52:47;;;;;;;1.63;0.80;;;;;;;4.76;95.10;100745.59;5016412;28;20052;-76
2022/03/30 04:55:13;;;;;;;1.25;0.75;;;;;;;4.75;94.65;100743.94;5023627;28;20037;-76
2022/03/30 04:57:40;;;;;;;3.08;1.05;;;;;;;4.63;94.66;100723.91;5020273;28;20024;-76
2022/03/30 05:00:10;;;;;;;1.48;0.82;;;;;;;4.63;95.09;100732.59;5019624;28;20136;-76
2022/03/30 05:02:37;;;;;;;2.22;0.93;;;;;;;4.64;94.92;100733.41;5017214;28;20065;-76
2022/03/30 05:05:03;;;;;;;1.40;0.93;;;;;;;4.67;95.32;100741.03;5020747;28;20067;-76
2022/03/30 05:07:29;;;;;;;1.83;0.60;;;;;;;4.63;95.17;100737.00;5020623;28;20494;-76
2022/03/30 05:09:54;;;;;;;7.72;1.17;;;;;;;4.62;95.12;100736.16;5015878;28;20129;-77
2022/03/30 05:12:19;;;;;;;1.98;0.80;;;;;;;4.61;94.89;100737.09;5014820;28;20033;-76
2022/03/30 05:14:45;;;;;;;1.38;0.57;;;;;;;4.64;94.05;100742.13;5000115;28;20401;-76
2022/03/30 05:17:10;;;;;;;2.28;0.55;;;;;;;4.59;93.73;100722.47;5016443;28;20498;-76
2022/03/30 05:19:37;;;;;;;2.90;0.90;;;;;;;4.53;94.16;100722.00;5016569;28;20444;-76
2022/03/30 05:22:04;;;;;;;1.50;0.70;;;;;;;4.61;93.64;100720.59;5012445;28;20030;-77
2022/03/30 05:24:30;;;;;;;1.92;1.42;;;;;;;4.58;93.17;100721.66;5012928;28;20041;-77
2022/03/30 05:26:56;;;;;;;3.60;1.17;;;;;;;4.56;92.80;100717.50;5016139;28;20513;-77
2022/03/30 05:29:21;;;;;;;1.23;0.95;;;;;;;4.46;92.93;100712.94;5018435;28;20416;-76
2022/03/30 05:31:47;;;;;;;2.90;1.40;;;;;;;4.44;92.89;100708.75;5021082;28;20087;-77
2022/03/30 05:34:12;;;;;;;1.83;0.93;;;;;;;4.44;93.03;100720.06;5017182;28;20037;-77
2022/03/30 05:36:37;;;;;;;6.10;0.88;;;;;;;4.44;91.98;100714.84;5013325;28;20033;-77
2022/03/30 05:39:03;;;;;;;0.82;0.65;;;;;;;4.44;92.22;100720.06;5016853;28;20552;-77
2022/03/30 05:41:29;;;;;;;2.65;0.85;;;;;;;4.27;92.78;100681.28;5016732;28;20441;-76
2022/03/30 05:43:54;;;;;;;2.50;0.68;;;;;;;4.37;92.65;100708.38;5018072;28;20034;-77
2022/03/30 05:46:19;;;;;;;4.95;1.17;;;;;;;4.41;92.00;100715.06;5016606;28;20080;-77
2022/03/30 05:48:45;;;;;;;7.20;1.23;;;;;;;4.48;92.36;100715.44;5015191;28;20026;-77
2022/03/30 05:51:10;;;;;;;5.10;1.23;;;;;;;4.50;92.64;100714.38;5006373;28;20068;-77
2022/03/30 05:53:36;;;;;;;2.50;0.80;;;;;;;4.56;91.71;100723.53;5009156;28;20052;-77
2022/03/30 05:56:02;;;;;;;1.55;0.80;;;;;;;4.59;91.50;100719.88;5011039;28;20025;-77
2022/03/30 05:58:28;;;;;;;4.70;0.75;;;;;;;4.62;92.05;100728.31;5011596;28;20029;-76
2022/03/30 06:00:53;;;;;;;2.00;0.70;;;;;;;4.69;91.15;100723.47;5008850;28;20044;-77
2022/03/30 06:03:19;;;;;;;4.28;1.27;;;;;;;4.74;90.75;100723.94;5011482;28;20030;-78
2022/03/30 06:05:45;;;;;;;5.45;1.10;;;;;;;4.79;90.43;100729.69;5012704;28;20029;-77
2022/03/30 06:08:10;;;;;;;2.88;0.77;;;;;;;4.74;91.49;100705.66;5017398;28;20512;-77
2022/03/30 06:10:36;;;;;;;1.08;0.65;;;;;;;4.90;91.12;100719.25;5000409;28;20501;-77
2022/03/30 06:13:02;;;;;;;2.22;0.60;;;;;;;4.94;90.83;100715.44;5032359;28;20042;-77
2022/03/30 06:15:29;;;;;;;4.78;0.90;;;;;;;5.07;90.67;100730.19;5015504;28;20057;-77
2022/03/30 06:17:56;;;;;;;2.20;0.90;;;;;;;5.07;89.63;100720.53;5018035;28;20034;-77
2022/03/30 06:20:24;;;;;;;1.67;0.80;;;;;;;5.17;89.55;100718.06;5017874;28;20105;-77
2022/03/30 06:22:51;;;;;;;1.35;0.60;;;;;;;5.13;89.23;100712.22;5017591;28;20026;-77
2022/03/30 06:25:17;;;;;;;1.75;0.95;;;;;;;5.17;89.84;100712.00;5017751;28;20084;-77
2022/03/30 06:27:42;;;;;;;5.75;1.27;;;;;;;5.21;89.42;100719.50;5017971;28;20033;-77
2022/03/30 06:30:09;;;;;;;4.97;0.90;;;;;;;5.31;89.45;100715.22;5002677;28;20037;-77
2022/03/30 06:32:35;;;;;;;2.58;0.73;;;;;;;5.37;89.23;100719.13;5016588;28;20088;-76
2022/03/30 06:35:05;;;;;;;4.07;0.73;;;;;;;5.41;87.56;100720.56;5003191;28;20025;-76
2022/03/30 06:37:31;;;;;;;3.08;0.90;;;;;;;5.54;87.17;100725.69;5017961;28;20080;-76
2022/03/30 06:39:56;;;;;;;5.32;0.80;;;;;;;5.53;86.45;100724.00;5014867;28;20026;-78
2022/03/30 06:42:22;;;;;;;2.42;0.73;;;;;;;5.48;86.14;100720.91;5018816;28;20505;-77
2022/03/30 06:44:47;;;;;;;2.67;0.80;;;;;;;5.38;85.58;100720.81;5014327;28;20298;-78
2022/03/30 06:47:13;;;;;;;3.17;0.63;;;;;;;5.35;87.44;100707.97;5016672;28;20371;-77
2022/03/30 06:49:38;;;;;;;1.42;0.70;;;;;;;5.31;88.72;100710.00;5017009;28;20028;-77
2022/03/30 06:52:09;;;;;;;4.05;1.00;;;;;;;5.46;88.83;100722.81;5014573;28;20128;-77
2022/03/30 06:54:37;;;;;;;2.92;0.60;;;;;;;5.40;88.77;100702.34;5024200;28;20223;-77
2022/03/30 06:57:03;;;;;;;1.50;0.82;;;;;;;5.71;89.17;100721.75;5017292;28;20425;-77
2022/03/30 06:59:29;;;;;;;3.10;1.00;;;;;;;5.71;88.22;100719.94;5003521;28;20488;-77
2022/03/30 07:01:55;;;;;;;4.88;2.72;;;;;;;5.75;88.24;100704.84;5015199;28;20064;-77
2022/03/30 07:04:21;;;;;;;1.17;0.65;;;;;;;5.95;87.64;100719.81;5013396;28;20065;-77
2022/03/30 07:12:15;;;;;;;2.08;0.63;;;;;;;6.67;86.43;100707.84;5011488;28;20091;-77
2022/03/30 07:14:40;;;;;;;1.40;0.70;;;;;;;6.94;84.66;100712.53;5010321;28;20477;-77
2022/03/30 07:17:06;;;;;;;2.05;0.80;;;;;;;7.04;82.58;100707.38;5011022;28;20041;-77
2022/03/30 07:19:31;;;;;;;2.20;0.60;;;;;;;7.09;81.32;100689.41;5009140;28;20468;-76
2022/03/30 07:21:56;;;;;;;3.33;0.50;;;;;;;7.17;80.38;100704.53;5015117;28;20037;-78
2022/03/30 07:24:22;;;;;;;2.80;0.70;;;;;;;6.96;79.80;100699.31;5009395;28;20057;-77
2022/03/30 07:26:47;;;;;;;1.92;0.65;;;;;;;6.89;80.84;100722.59;4996390;28;20064;-77
2022/03/30 07:29:13;;;;;;;3.35;0.88;;;;;;;6.71;80.94;100711.88;5013972;28;20101;-77
2022/03/30 07:31:38;;;;;;;2.10;0.40;;;;;;;6.49;81.04;100720.69;5010724;28;20045;-77
2022/03/30 07:34:04;;;;;;;2.33;0.60;;;;;;;6.45;82.00;100724.53;5015312;28;20034;-77
2022/03/30 07:36:30;;;;;;;1.92;0.70;;;;;;;6.63;82.27;100706.44;5009237;28;20037;-77
2022/03/30 07:38:55;;;;;;;2.20;0.50;;;;;;;6.79;82.25;100708.59;5007233;28;20022;-77
2022/03/30 07:41:20;;;;;;;0.88;0.60;;;;;;;6.91;83.06;100681.34;5015692;28;20040;-77
2022/03/30 07:43:46;;;;;;;2.78;0.90;;;;;;;7.07;82.50;100714.13;4996168;28;20504;-77
2022/03/30 07:46:13;;;;;;;1.60;0.70;;;;;;;7.12;83.03;100706.69;5015839;28;20022;-77
2022/03/30 07:48:38;;;;;;;3.65;0.75;;;;;;;7.18;80.92;100708.78;5013096;28;20038;-77
2022/03/30 07:51:04;;;;;;;2.03;0.70;;;;;;;7.17;80.92;100710.59;5019803;28;20041;-78
2022/03/30 07:53:30;;;;;;;2.50;0.80;;;;;;;7.18;80.72;100707.00;5018624;28;20539;-77
2022/03/30 07:55:55;;;;;;;4.72;0.98;;;;;;;7.06;80.37;100688.88;5017458;28;20034;-77
2022/03/30 07:58:21;;;;;;;4.57;0.70;;;;;;;6.87;81.20;100700.91;5013694;28;20034;-77
2022/03/30 08:00:47;;;;;;;1.95;0.70;;;;;;;6.96;81.37;100718.50;5017012;28;20084;-77
2022/03/30 08:03:12;;;;;;;1.48;0.70;;;;;;;6.98;80.42;100718.38;5012476;28;20064;-77
2022/03/30 08:05:38;;;;;;;3.60;0.70;;;;;;;6.93;79.04;100715.31;5018024;28;20041;-77
2022/03/30 08:08:06;;;;;;;1.30;0.43;;;;;;;6.69;78.30;100712.97;5018547;28;20485;-77
2022/03/30 08:10:33;;;;;;;7.32;0.70;;;;;;;6.63;77.83;100723.97;5019386;28;20037;-77
2022/03/30 08:12:59;;;;;;;3.28;0.88;;;;;;;6.54;78.62;100726.38;5016508;28;20060;-77
2022/03/30 08:15:25;;;;;;;3.17;0.40;;;;;;;6.61;78.34;100733.75;5018517;28;20045;-77
2022/03/30 08:17:52;;;;;;;2.78;0.60;;;;;;;6.55;78.81;100730.69;5020872;28;20056;-77
2022/03/30 08:23:03;;;;;;;1.80;0.90;;;;;;;6.49;77.69;100736.41;5017522;28;20053;-77
2022/03/30 08:25:29;;;;;;;2.97;0.60;;;;;;;6.41;77.90;100720.47;5019560;28;20029;-78
2022/03/30 08:27:54;;;;;;;3.13;0.43;;;;;;;6.63;78.21;100739.69;5021589;28;20064;-77
2022/03/30 08:30:20;;;;;;;2.78;0.60;;;;;;;6.50;77.91;100729.38;5022524;28;20589;-77
2022/03/30 08:32:45;;;;;;;4.10;0.70;;;;;;;6.55;77.92;100733.31;4984229;28;20034;-79
2022/03/30 08:35:12;;;;;;;1.67;0.50;;;;;;;6.54;78.09;100720.31;5019847;28;20455;-78
2022/03/30 08:37:39;;;;;;;1.65;0.52;;;;;;;6.44;77.42;100727.25;5015194;28;20021;-77
2022/03/30 08:40:06;;;;;;;1.60;0.30;;;;;;;6.41;76.64;100725.72;5020863;28;20035;-78
2022/03/30 08:42:32;;;;;;;1.95;0.40;;;;;;;6.47;76.80;100734.88;5019071;28;20377;-77
2022/03/30 08:44:59;;;;;;;4.63;0.60;;;;;;;6.58;76.00;100725.16;5018683;28;20022;-78
2022/03/30 08:47:25;;;;;;;2.85;0.30;;;;;;;6.85;76.98;100713.31;5021115;28;20398;-77
2022/03/30 08:49:51;;;;;;;0.75;0.30;;;;;;;7.00;75.81;100711.19;5019783;28;20022;-78
2022/03/30 08:52:16;;;;;;;4.30;0.70;;;;;;;7.10;74.10;100685.84;5017045;28;20442;-78
2022/03/30 08:54:49;;;;;;;2.45;0.40;;;;;;;7.17;73.25;100707.16;5012207;28;20120;-78
2022/03/30 08:57:15;;;;;;;1.90;0.60;;;;;;;7.00;71.90;100700.72;5016129;28;20033;-77
2022/03/30 09:00:05;;;;;;;3.53;0.80;;;;;;;7.27;72.38;100713.25;5015142;28;20033;-78
2022/03/30 09:03:01;;;;;;;1.20;0.47;;;;;;;7.17;71.00;100702.72;5011794;28;20026;-77
2022/03/30 09:05:28;;;;;;;2.75;0.70;;;;;;;7.37;71.53;100695.75;5014546;28;20030;-77
2022/03/30 09:08:08;;;;;;;2.05;0.50;;;;;;;7.56;69.49;100697.63;5012799;28;20022;-77
2022/03/30 09:10:35;;;;;;;0.60;0.30;;;;;;;7.90;69.78;100705.13;5017275;28;20017;-77
2022/03/30 09:13:02;;;;;;;4.65;0.75;;;;;;;7.89;69.66;100692.16;5017683;28;20038;-77
2022/03/30 09:15:28;;;;;;;3.13;0.88;;;;;;;8.27;72.40;100711.53;5017179;28;20041;-77
2022/03/30 09:18:14;;;;;;;1.70;0.80;;;;;;;8.31;73.00;100712.94;5018573;28;20032;-78
2022/03/30 09:20:42;;;;;;;1.25;0.63;;;;;;;8.12;71.64;100708.50;5015265;28;20024;-77
2022/03/30 09:23:10;;;;;;;2.92;0.70;;;;;;;7.99;72.82;100714.00;5015101;28;20045;-78
2022/03/30 09:25:36;;;;;;;1.40;0.70;;;;;;;7.70;73.34;100687.69;5013967;28;20420;-75
2022/03/30 09:28:02;;;;;;;2.42;0.60;;;;;;;7.36;73.38;100712.47;5015280;28;20077;-77
2022/03/30 09:30:29;;;;;;;4.03;0.90;;;;;;;7.40;73.98;100707.78;5016880;28;20489;-77
2022/03/30 09:32:57;;;;;;;2.40;0.68;;;;;;;7.28;73.96;100693.94;5024641;28;20424;-75
2022/03/30 09:35:32;;;;;;;1.88;0.63;;;;;;;7.43;73.26;100706.72;5021180;28;20348;-73
2022/03/30 09:38:11;;;;;;;2.75;0.85;;;;;;;8.00;73.27;100708.63;5016670;28;20156;-74
2022/03/30 09:40:55;;;;;;;1.80;0.60;;;;;;;8.56;73.58;100694.00;5013078;28;20025;-74
2022/03/30 09:43:28;;;;;;;6.20;1.00;;;;;;;9.39;66.33;100686.25;5018492;28;20128;-75
2022/03/30 09:46:09;;;;;;;4.13;0.70;;;;;;;9.48;66.24;100701.16;5017945;28;20045;-76
2022/03/30 09:48:39;;;;;;;3.77;1.10;;;;;;;8.72;64.55;100700.47;5021226;28;20410;-76
2022/03/30 09:51:08;;;;;;;9.02;2.42;;;;;;;8.51;66.11;100708.53;5013830;28;20061;-75
2022/03/30 09:53:35;;;;;;;10.13;1.30;;;;;;;9.03;65.06;100696.63;5021377;28;20344;-75
2022/03/30 09:56:07;;;;;;;1.90;0.77;;;;;;;9.12;65.14;100696.75;5022905;28;20033;-75
2022/03/30 09:58:37;;;;;;;5.40;0.82;;;;;;;9.24;64.38;100698.25;5021934;28;20068;-75
2022/03/30 10:01:09;;;;;;;2.63;0.63;;;;;;;9.38;64.74;100705.66;5018146;28;20037;-77
2022/03/30 10:03:42;;;;;;;1.85;0.80;;;;;;;10.21;63.90;100710.84;5022259;28;20200;-75
2022/03/30 10:06:09;;;;;;;4.47;0.60;;;;;;;11.20;58.08;100690.44;5020352;28;20029;-76
2022/03/30 10:08:34;;;;;;;1.63;0.50;;;;;;;11.98;55.76;100707.94;5014407;28;20038;-75
2022/03/30 10:11:00;;;;;;;3.00;1.25;;;;;;;11.74;56.76;100698.91;5018600;28;20451;-75
2022/03/30 10:13:25;;;;;;;6.35;0.70;;;;;;;11.36;55.88;100705.53;5019200;28;20041;-75
2022/03/30 10:15:52;;;;;;;3.17;0.52;;;;;;;10.21;56.49;100695.03;5023496;28;20357;-74
2022/03/30 10:18:19;;;;;;;4.85;0.68;;;;;;;9.97;59.79;100692.97;5021949;28;20493;-74
2022/03/30 10:20:49;;;;;;;2.38;0.52;;;;;;;10.50;59.45;100712.44;5021546;28;20075;-74
2022/03/30 10:23:39;;;;;;;3.25;1.00;;;;;;;10.23;56.95;100708.03;5015767;28;20104;-74
2022/03/30 10:26:18;;;;;;;1.58;0.68;;;;;;;10.03;57.65;100712.63;5014832;28;20033;-74
2022/03/30 10:28:55;;;;;;;3.60;0.63;;;;;;;9.75;58.83;100710.03;5016307;28;20373;-73
2022/03/30 10:31:22;;;;;;;3.78;0.75;;;;;;;9.85;58.65;100710.81;5015617;28;20045;-76
2022/03/30 10:33:48;;;;;;;1.65;0.50;;;;;;;10.01;58.86;100691.69;5011856;28;20040;-76
2022/03/30 10:36:32;;;;;;;2.20;0.40;;;;;;;10.06;56.42;100707.03;5016002;28;20034;-77
2022/03/30 10:39:16;;;;;;;7.80;0.75;;;;;;;9.70;57.97;100709.66;5030384;28;20026;-77
2022/03/30 10:41:52;;;;;;;1.33;0.45;;;;;;;9.50;57.42;100703.66;5015776;28;20091;-77
2022/03/30 10:44:38;;;;;;;3.97;0.60;;;;;;;9.45;57.99;100690.94;5017191;28;20021;-76
2022/03/30 10:47:06;;;;;;;2.47;0.50;;;;;;;9.49;58.76;100694.09;5012126;28;20026;-77
2022/03/30 10:49:47;;;;;;;1.77;0.35;;;;;;;9.56;58.21;100686.41;5013008;28;20392;-77
2022/03/30 10:52:39;;;;;;;2.42;0.65;;;;;;;9.40;58.36;100687.88;5011769;28;20030;-76
2022/03/30 10:55:13;;;;;;;4.65;1.05;;;;;;;9.45;56.75;100684.81;5010118;28;20080;-77
2022/03/30 10:58:01;;;;;;;4.05;0.50;;;;;;;9.68;56.65;100682.63;5013715;28;20022;-77
2022/03/30 11:00:34;;;;;;;3.85;1.38;;;;;;;9.83;57.49;100690.84;5011676;28;20034;-76
2022/03/30 11:03:18;;;;;;;3.25;0.50;;;;;;;10.05;55.74;100679.03;5012579;28;20025;-76
2022/03/30 11:05:59;;;;;;;0.80;0.30;;;;;;;10.55;54.30;100683.78;5014330;28;20104;-77
2022/03/30 11:08:48;;;;;;;3.05;0.47;;;;;;;11.96;53.07;100678.16;5009798;28;20026;-76
2022/03/30 11:11:35;;;;;;;1.63;0.60;;;;;;;13.07;49.60;100675.75;5012349;28;20045;-77
2022/03/30 11:14:36;;;;;;;2.67;0.50;;;;;;;12.98;47.95;100679.44;5015479;28;20410;-76
2022/03/30 11:17:10;;;;;;;2.80;0.50;;;;;;;12.87;49.46;100675.31;5017167;28;20052;-77
2022/03/30 11:19:47;;;;;;;2.30;0.40;;;;;;;13.08;47.73;100674.75;5013582;28;20030;-76
2022/03/30 11:22:32;;;;;;;2.65;0.70;;;;;;;12.82;49.13;100674.16;5020279;28;20025;-76
2022/03/30 11:25:19;;;;;;;2.05;0.35;;;;;;;13.61;48.41;100677.72;5015701;28;20120;-78
2022/03/30 11:28:04;;;;;;;2.70;0.38;;;;;;;15.20;45.61;100671.56;5011753;28;20029;-77
2022/03/30 11:30:31;;;;;;;1.25;0.45;;;;;;;14.97;46.60;100662.88;5016029;28;20486;-76
2022/03/30 11:32:58;;;;;;;2.25;0.57;;;;;;;14.58;47.03;100680.66;5012434;28;20018;-76
2022/03/30 11:35:37;;;;;;;3.67;1.30;;;;;;;13.84;48.65;100661.00;5011327;28;20128;-76
2022/03/30 11:38:12;;;;;;;2.17;0.63;;;;;;;12.77;49.39;100670.19;5008892;28;20083;-76
2022/03/30 11:40:41;;;;;;;4.32;0.50;;;;;;;12.44;50.20;100672.06;5014323;28;20632;-77
2022/03/30 11:43:07;;;;;;;3.08;0.50;;;;;;;11.72;50.91;100666.50;5014312;28;20088;-77
2022/03/30 11:45:33;;;;;;;1.63;0.57;;;;;;;11.51;51.84;100662.47;5011620;28;20044;-76